ADDS METAR Data INFO
IDs: Format: Raw Decoded Include TAF

Data at: 0136 UTC 20 Feb 2018

KMRT 200115Z AUTO 21012G16KT 10SM CLR 17/14 A3006 RMK AO2 T01720135
KMRT 200055Z AUTO 21013KT 10SM SCT047 SCT050 18/14 A3006 RMK AO2 T01750137
KMRT 200035Z AUTO 21012KT 10SM CLR 17/14 A3006 RMK AO2 T01730140
KMRT 200015Z AUTO 21010KT 10SM CLR 18/14 A3006 RMK AO2 T01750141
KMRT 192355Z AUTO 21012KT 10SM CLR 18/14 A3005 RMK AO2 60002 T01770143 10190 20150
KMRT 192335Z AUTO 20012KT 10SM CLR 18/15 A3005 RMK AO2 T01780146
KMRT 192315Z AUTO 20009KT 10SM SCT047 SCT055 SCT095 18/15 A3005 RMK AO2 T01800148
KMRT 192255Z AUTO 21010KT 10SM SCT047 BKN055 18/15 A3004 RMK AO2 T01820150
KMRT 192235Z AUTO 20009KT 10SM SCT043 SCT090 19/15 A3003 RMK AO2 T01860150
KMRT 192215Z AUTO 20011KT 10SM SCT090 SCT110 19/15 A3003 RMK AO2 T01870152
KMRT 192155Z AUTO 20010KT 10SM CLR 19/16 A3003 RMK AO2 T01900155
KMRT 192135Z AUTO 20010KT 10SM CLR 19/16 A3003 RMK AO2 T01900158
KMRT 192115Z AUTO 21007KT 10SM CLR 19/16 A3003 RMK AO2 T01860159
KMRT 192055Z AUTO 22008KT 10SM CLR 18/16 A3003 RMK AO2 60002 T01810156
KMRT 192035Z AUTO 21008KT 10SM SCT120 18/16 A3003 RMK AO2 T01800155
KMRT 192015Z AUTO 21012G15KT 10SM SCT120 18/15 A3003 RMK AO2 T01750151
KMRT 191955Z AUTO 21010KT 10SM SCT040 17/15 A3003 RMK AO2 P0001 T01680150
KMRT 191935Z AUTO 20010KT 10SM SCT040 BKN048 BKN100 16/15 A3003 RMK AO2 P0001 T01630148
KMRT 191915Z AUTO 19009KT 10SM SCT032 SCT049 BKN100 16/15 A3003 RMK AO2 P0001 T01560145
KMRT 191855Z AUTO 21009KT 4SM BKN031 BKN038 OVC085 16/14 A3005 RMK AO2 P0001 T01550141
KMRT 191835Z AUTO 20010KT 7SM SCT021 BKN034 OVC085 16/14 A3005 RMK AO2 T01560140
KMRT 191815Z AUTO 21010KT 10SM OVC017 15/14 A3006 RMK AO2 T01520137
KMRT 191755Z AUTO 21010G16KT 10SM OVC015 15/14 A3005 RMK AO2 60035 T01480135 10148 20060
KMRT 191735Z AUTO 21009KT 10SM OVC015 14/13 A3005 RMK AO2 T01420131
KMRT 191715Z AUTO 20008G15KT 10SM OVC015 14/13 A3005 RMK AO2 T01380127
KMRT 191655Z AUTO 21012KT 10SM OVC013 14/13 A3006 RMK AO2 T01350125
KMRT 191635Z AUTO 21012G16KT 10SM OVC011 13/12 A3007 RMK AO2 T01270122
KMRT 191615Z AUTO 20010KT 10SM OVC007 11/11 A3007 RMK AO2 T01140111
KMRT 191555Z AUTO 20008KT 7SM OVC007 10/10 A3007 RMK AO2 T01040101
KMRT 191535Z AUTO 19008KT 5SM OVC005 10/10 A3006 RMK AO2 T00980095
KMRT 191515Z AUTO 18005KT 3SM OVC005 09/09 A3006 RMK AO2 T00910087
KMRT 191455Z AUTO 18005KT 1 1/4SM OVC007 09/08 A3006 RMK AO2 P0019 60035 T00870083
KMRT 191435Z AUTO 18005KT 2 1/2SM OVC009 09/08 A3006 RMK AO2 VIS 1 1/4V5 P0016 T00850081
KMRT 191415Z AUTO 17004KT 1/2SM OVC011 08/08 A3007 RMK AO2 VIS 1/4V1 1/2 P0008 T00830079
KMRT 191355Z AUTO 20005KT 1 1/2SM SCT007 BKN013 OVC020 08/08 A3008 RMK AO2 P0015 T00820076
KMRT 191335Z AUTO 27004KT 1 1/2SM OVC007 08/08 A3008 RMK AO2 VIS 3/4V5 P0003 T00830076
KMRT 191315Z AUTO 20008KT 10SM OVC007 08/07 A3006 RMK AO2 T00760068
KMRT 191255Z AUTO 20011KT 10SM OVC009 08/07 A3005 RMK AO2 T00750065
KMRT 191235Z AUTO 20009KT 10SM OVC011 07/06 A3004 RMK AO2 T00710062
KMRT 191215Z AUTO 20010KT 7SM OVC013 07/06 A3004 RMK AO2 T00650055
KMRT 191155Z AUTO 19010KT 10SM OVC015 06/05 A3004 RMK AO2 T00600047 10060 20014
KMRT 191135Z AUTO 19011KT 10SM BKN017 BKN021 OVC120 06/04 A3004 RMK AO2 T00560041
KMRT 191115Z AUTO 18009KT 5SM BKN015 BKN022 OVC055 05/03 A3004 RMK AO2 T00460027
KMRT 191055Z AUTO 19008KT 10SM OVC013 05/02 A3006 RMK AO2 T00460018
KMRT 191035Z AUTO 19008KT 10SM OVC013 04/01 A3005 RMK AO2 T00400011
KMRT 191015Z AUTO 19009KT 10SM OVC013 04/01 A3006 RMK AO2 T00380007
KMRT 190955Z AUTO 20010KT 10SM BKN015 OVC020 03/00 A3007 RMK AO2 T00300000
KMRT 190935Z AUTO 22009KT 10SM SCT021 BKN090 BKN120 03/00 A3007 RMK AO2 T00251001
KMRT 190915Z AUTO 21009KT 10SM BKN120 02/00 A3006 RMK AO2 T00241003
KMRT 190855Z AUTO 20009KT 10SM BKN110 02/00 A3005 RMK AO2 T00211005
KMRT 190835Z AUTO 20009KT 10SM CLR 02/M01 A3007 RMK AO2 T00201006
KMRT 190815Z AUTO 20008KT 10SM CLR 02/M01 A3006 RMK AO2 T00181007
KMRT 190755Z AUTO 20009KT 10SM CLR 02/M01 A3007 RMK AO2 T00211007
KMRT 190735Z AUTO 19007KT 10SM CLR 02/M01 A3006 RMK AO2 T00181010
KMRT 190715Z AUTO 18008KT 10SM CLR 02/M01 A3006 RMK AO2 T00191010
KMRT 190655Z AUTO 19008KT 10SM CLR 02/M01 A3008 RMK AO2 T00171010
KMRT 190635Z AUTO 19007KT 10SM CLR 02/M01 A3008 RMK AO2 T00161010
KMRT 190616Z AUTO 18008KT 10SM CLR 02/M01 A3009 RMK AO2 T00151010
KMRT 190555Z AUTO 18007KT 10SM CLR 02/M01 A3010 RMK AO2 T00171011 10031 20015 400561020
KMRT 190535Z AUTO 18008KT 10SM CLR 02/M01 A3011 RMK AO2 T00161010
KMRT 190515Z AUTO 18007KT 10SM CLR 02/M01 A3011 RMK AO2 T00171010
KMRT 190455Z AUTO 18007KT 10SM CLR 02/M01 A3012 RMK AO2 T00171010
KMRT 190435Z AUTO 18007KT 10SM CLR 02/M01 A3012 RMK AO2 T00201011
KMRT 190415Z AUTO 18007KT 140V200 10SM CLR 02/M01 A3013 RMK AO2 T00231010
KMRT 190355Z AUTO 17006KT 10SM CLR 02/M01 A3013 RMK AO2 T00231010
KMRT 190335Z AUTO 17004KT 10SM CLR 03/M01 A3015 RMK AO2 T00251010
KMRT 190315Z AUTO 17004KT 10SM CLR 03/M01 A3016 RMK AO2 T00251010
KMRT 190255Z AUTO 16004KT 10SM CLR 03/M01 A3017 RMK AO2 T00261010
KMRT 190235Z AUTO 14004KT 10SM CLR 03/M01 A3017 RMK AO2 T00271010
KMRT 190215Z AUTO 15004KT 10SM CLR 03/M01 A3019 RMK AO2 T00271010
KMRT 190155Z AUTO 18004KT 10SM CLR 02/M01 A3021 RMK AO2 T00241008
KMRT 190135Z AUTO 17003KT 10SM CLR 03/M01 A3021 RMK AO2 T00261010
KMRT 190115Z AUTO 14003KT 10SM CLR 03/M01 A3021 RMK AO2 T00271010
KMRT 190055Z AUTO 00000KT 10SM CLR 03/M01 A3022 RMK AO2 T00251008
KMRT 190035Z AUTO 14003KT 10SM CLR 03/M01 A3022 RMK AO2 T00261010
KMRT 190015Z AUTO 13003KT 10SM CLR 03/M01 A3022 RMK AO2 T00281010
KMRT 182355Z AUTO 13004KT 10SM CLR 03/M01 A3022 RMK AO2 T00311010 10056 20031
KMRT 182335Z AUTO 13003KT 10SM CLR 04/M01 A3023 RMK AO2 T00351010
KMRT 182315Z AUTO 13003KT 10SM CLR 04/M01 A3023 RMK AO2 T00401007
KMRT 182255Z AUTO 13003KT 10SM CLR 04/M01 A3024 RMK AO2 T00441009
KMRT 182235Z AUTO 16003KT 10SM CLR 05/00 A3025 RMK AO2 T00451005
KMRT 182215Z AUTO 17006KT 10SM CLR 05/M01 A3026 RMK AO2 T00471008
KMRT 182155Z AUTO 17005KT 10SM CLR 05/00 A3026 RMK AO2 T00471003
KMRT 182135Z AUTO 18005KT 10SM CLR 05/M01 A3026 RMK AO2 T00501009
KMRT 182115Z AUTO 15006KT 10SM CLR 06/M01 A3027 RMK AO2 T00551012
KMRT 182055Z AUTO 17005KT 10SM CLR 06/M01 A3027 RMK AO2 T00551011
KMRT 182035Z AUTO 17004G14KT 10SM CLR 05/M01 A3028 RMK AO2 T00511010
KMRT 182015Z AUTO 16008KT 130V190 10SM CLR 05/00 A3029 RMK AO2 T00511002
KMRT 181955Z AUTO 19009KT 10SM CLR 05/00 A3029 RMK AO2 T00461005
KMRT 181935Z AUTO 19009KT 10SM CLR 05/00 A3030 RMK AO2 T00451002
KMRT 181915Z AUTO 19011KT 10SM CLR 04/00 A3030 RMK AO2 T00411003
KMRT 181855Z AUTO 21008KT 10SM CLR 04/M01 A3033 RMK AO2 T00371006
KMRT 181835Z AUTO 18010KT 10SM SCT022 04/00 A3034 RMK AO2 T00381005
KMRT 181815Z AUTO 20012KT 10SM BKN022 04/M01 A3035 RMK AO2 T00351006
KMRT 181755Z AUTO 21010G15KT 10SM BKN024 03/M01 A3035 RMK AO2 T00341010 10035 21020
KMRT 181735Z AUTO 20010G16KT 10SM BKN022 03/M01 A3035 RMK AO2 T00321006
KMRT 181715Z AUTO 20010G15KT 10SM OVC022 03/M01 A3036 RMK AO2 T00271010
KMRT 181655Z AUTO 20009KT 10SM OVC020 02/M01 A3037 RMK AO2 T00221011
KMRT 181635Z AUTO 21008KT 10SM BKN020 02/M02 A3036 RMK AO2 T00171020
KMRT 181615Z AUTO 21009KT 10SM OVC020 02/M02 A3036 RMK AO2 T00151019
KMRT 181555Z AUTO 15005KT 10SM SCT020 02/M02 A3036 RMK AO2 T00171021
KMRT 181535Z AUTO 00000KT 10SM CLR 01/M03 A3036 RMK AO2 T00101027
KMRT 181515Z AUTO 00000KT 10SM CLR 01/M02 A3036 RMK AO2 T00081023
KMRT 181455Z AUTO 00000KT 10SM CLR 01/M03 A3037 RMK AO2 T00051026
KMRT 181435Z AUTO 00000KT 7SM CLR 00/M02 A3035 RMK AO2 T00011022
KMRT 181415Z AUTO 23003KT 7SM CLR 00/M02 A3035 RMK AO2 T00001024
KMRT 181355Z AUTO 22004KT 7SM CLR M01/M02 A3036 RMK AO2 T10071024